Time;durP1;ratioP1;P1;durP2;ratioP2;P2;SDS_P1;SDS_P2;PMS_P1;PMS_P2;Temp;Humidity;BMP_temperature;BMP_pressure;BME280_temperature;BME280_humidity;BME280_pressure;Samples;Min_cycle;Max_cycle;Signal;HPM_P1;HPM_P2
2022/10/26 00:00:28;;;;;;;15.85;9.60;;;9.60;99.90;;;;;;4987101;28;20081;-80
2022/10/26 00:02:55;;;;;;;17.05;10.30;;;9.60;99.90;;;;;;4992273;28;20504;-79
2022/10/26 00:05:22;;;;;;;15.48;10.07;;;9.60;99.90;;;;;;4991143;28;20105;-79
2022/10/26 00:07:48;;;;;;;12.55;9.38;;;9.60;99.90;;;;;;4974667;28;20054;-79
2022/10/26 00:10:13;;;;;;;13.13;9.30;;;9.60;99.90;;;;;;4991559;28;20137;-79
2022/10/26 00:12:39;;;;;;;15.27;10.43;;;9.60;99.90;;;;;;4990533;28;20133;-79
2022/10/26 00:15:06;;;;;;;14.40;9.25;;;9.60;99.90;;;;;;4990869;28;20038;-79
2022/10/26 00:17:31;;;;;;;15.05;9.88;;;9.50;99.90;;;;;;4990692;28;20168;-79
2022/10/26 00:19:59;;;;;;;14.50;9.75;;;9.50;99.90;;;;;;4990738;28;20494;-80
2022/10/26 00:22:25;;;;;;;11.95;9.20;;;9.50;99.90;;;;;;4989839;28;20524;-80
2022/10/26 00:24:50;;;;;;;15.68;9.57;;;9.50;99.90;;;;;;4990600;28;20054;-79
2022/10/26 00:27:16;;;;;;;13.43;9.98;;;9.50;99.90;;;;;;4989981;28;20038;-79
2022/10/26 00:29:41;;;;;;;17.75;9.23;;;9.50;99.90;;;;;;4974328;28;20050;-79
2022/10/26 00:32:07;;;;;;;15.20;9.95;;;9.50;99.90;;;;;;4989986;28;20050;-79
2022/10/26 00:34:35;;;;;;;23.63;10.15;;;9.40;99.90;;;;;;4991733;28;20089;-79
2022/10/26 00:37:01;;;;;;;15.15;10.40;;;9.40;99.90;;;;;;4990341;28;20050;-79
2022/10/26 00:39:27;;;;;;;16.17;10.35;;;9.40;99.90;;;;;;4990650;28;20089;-79
2022/10/26 00:41:52;;;;;;;14.88;9.27;;;9.70;99.90;;;;;;4990926;28;20057;-79
2022/10/26 00:45:03;;;;;;;15.75;10.10;;;9.40;99.90;;;;;;4973812;28;20133;-80
2022/10/26 00:47:47;;;;;;;14.73;10.02;;;9.30;99.90;;;;;;4987673;28;20417;-79
2022/10/26 00:50:24;;;;;;;12.13;9.77;;;9.30;99.90;;;;;;4990089;28;20099;-80
2022/10/26 00:52:52;;;;;;;17.77;10.05;;;9.30;99.90;;;;;;4991320;28;20083;-79
2022/10/26 00:55:21;;;;;;;13.05;9.85;;;9.20;99.90;;;;;;4973631;28;20042;-80
2022/10/26 00:57:50;;;;;;;16.65;9.73;;;9.20;99.90;;;;;;4990325;28;20054;-80
2022/10/26 01:00:16;;;;;;;14.77;10.02;;;9.20;99.90;;;;;;4989965;28;20096;-80
2022/10/26 01:02:46;;;;;;;12.77;9.80;;;9.10;99.90;;;;;;4990085;28;20058;-80
2022/10/26 01:05:14;;;;;;;13.68;9.75;;;9.10;99.90;;;;;;4973323;28;20142;-80
2022/10/26 01:07:41;;;;;;;14.35;10.20;;;9.40;99.90;;;;;;4973695;28;20145;-79
2022/10/26 01:10:08;;;;;;;18.10;10.95;;;9.00;99.90;;;;;;4990985;28;20046;-79
2022/10/26 01:12:33;;;;;;;16.75;10.80;;;9.00;99.90;;;;;;4989331;28;20142;-79
2022/10/26 01:14:59;;;;;;;15.05;10.52;;;9.00;99.90;;;;;;4991022;28;20133;-80
2022/10/26 01:17:53;;;;;;;15.27;10.43;;;8.90;99.90;;;;;;4973305;28;20588;-79
2022/10/26 01:21:12;;;;;;;16.95;10.55;;;8.90;99.90;;;;;;4990643;28;20054;-80
2022/10/26 01:23:46;;;;;;;18.52;10.48;;;8.90;99.90;;;;;;4973422;28;20058;-79
2022/10/26 01:26:36;;;;;;;17.02;11.02;;;8.90;99.90;;;;;;4989413;28;20068;-80
2022/10/26 01:29:34;;;;;;;17.38;10.30;;;8.80;99.90;;;;;;4989234;28;20495;-80
2022/10/26 01:32:22;;;;;;;15.73;10.57;;;8.80;99.90;;;;;;4990330;28;20477;-80
2022/10/26 01:35:00;;;;;;;17.45;11.32;;;8.80;99.90;;;;;;4989278;28;20488;-80
2022/10/26 01:37:45;;;;;;;21.08;11.27;;;8.70;99.90;;;;;;4989083;28;20046;-80
2022/10/26 01:40:26;;;;;;;16.27;11.30;;;8.70;99.90;;;;;;4989126;28;20050;-79
2022/10/26 01:42:55;;;;;;;15.98;10.98;;;8.70;99.90;;;;;;4989825;28;20394;-79
2022/10/26 01:45:21;;;;;;;19.00;11.30;;;8.70;99.90;;;;;;4990302;28;20081;-79
2022/10/26 01:47:48;;;;;;;17.52;11.98;;;8.70;99.90;;;;;;4972376;28;20086;-79
2022/10/26 01:50:15;;;;;;;15.90;11.48;;;8.70;99.90;;;;;;4973229;28;20444;-79
2022/10/26 01:52:40;;;;;;;17.85;11.57;;;8.70;99.90;;;;;;4989841;28;20120;-80
2022/10/26 01:55:41;;;;;;;18.33;11.40;;;8.70;99.90;;;;;;4989842;28;20105;-79
2022/10/26 01:58:33;;;;;;;18.50;11.75;;;8.60;99.90;;;;;;4989842;28;20594;-80
2022/10/26 02:01:15;;;;;;;19.73;12.25;;;8.60;99.90;;;;;;4988874;28;20050;-80
2022/10/26 02:03:49;;;;;;;21.67;12.38;;;8.60;99.90;;;;;;4989589;28;20443;-80
2022/10/26 02:06:39;;;;;;;16.63;11.90;;;8.60;99.90;;;;;;4990291;28;20467;-79
2022/10/26 02:09:26;;;;;;;17.65;11.43;;;8.60;99.90;;;;;;4988795;28;20094;-80
2022/10/26 02:11:52;;;;;;;15.07;11.18;;;8.60;99.90;;;;;;4987546;28;20065;-80
2022/10/26 02:14:26;;;;;;;15.70;12.32;;;8.60;99.90;;;;;;4988471;28;20042;-80
2022/10/26 02:16:57;;;;;;;23.70;12.82;;;8.60;99.90;;;;;;4989788;28;20109;-80
2022/10/26 02:19:42;;;;;;;19.85;12.50;;;8.60;99.90;;;;;;4988894;28;20492;-80
2022/10/26 02:22:20;;;;;;;19.50;11.93;;;8.60;99.90;;;;;;4988354;28;20516;-80
2022/10/26 02:24:48;;;;;;;16.88;12.95;;;8.50;99.90;;;;;;4988393;28;20085;-80
2022/10/26 02:27:19;;;;;;;18.77;12.27;;;8.50;99.90;;;;;;4987662;28;20401;-80
2022/10/26 02:29:46;;;;;;;18.65;12.90;;;8.50;99.90;;;;;;4989472;28;20053;-79
2022/10/26 02:32:13;;;;;;;25.50;14.15;;;8.50;99.90;;;;;;4988000;28;20050;-80
2022/10/26 02:34:43;;;;;;;21.25;13.02;;;8.50;99.90;;;;;;4987454;28;20042;-80
2022/10/26 02:37:09;;;;;;;23.20;13.80;;;8.50;99.90;;;;;;4988377;28;20046;-80
2022/10/26 02:39:38;;;;;;;19.48;14.23;;;8.50;99.90;;;;;;4988145;28;20432;-80
2022/10/26 02:42:06;;;;;;;24.10;14.35;;;8.50;99.90;;;;;;4987726;28;20046;-80
2022/10/26 02:44:38;;;;;;;20.58;13.75;;;8.50;99.90;;;;;;4987578;28;20069;-80
2022/10/26 02:47:04;;;;;;;20.48;13.73;;;8.50;99.90;;;;;;4988462;28;20426;-80
2022/10/26 02:49:30;;;;;;;28.33;15.55;;;8.50;99.90;;;;;;4988127;28;20232;-80
2022/10/26 02:52:05;;;;;;;25.42;14.77;;;8.50;99.90;;;;;;4987726;28;20054;-80
2022/10/26 02:54:49;;;;;;;20.05;13.88;;;8.50;99.90;;;;;;4988136;28;20073;-80
2022/10/26 02:57:31;;;;;;;26.67;13.98;;;8.50;99.90;;;;;;4986962;28;20081;-80
2022/10/26 02:59:57;;;;;;;22.20;14.77;;;8.50;99.90;;;;;;4971447;28;20108;-80
2022/10/26 03:02:23;;;;;;;21.13;14.70;;;8.50;99.90;;;;;;4971751;28;20125;-80
2022/10/26 03:04:50;;;;;;;19.60;14.00;;;8.50;99.90;;;;;;4987822;28;20216;-80
2022/10/26 03:07:25;;;;;;;25.75;14.93;;;8.60;99.90;;;;;;4987507;28;20046;-80
2022/10/26 03:09:50;;;;;;;25.40;14.95;;;8.60;99.90;;;;;;4987709;28;20045;-80
2022/10/26 03:12:16;;;;;;;23.88;15.38;;;8.60;99.90;;;;;;4987225;28;20046;-80
2022/10/26 03:14:42;;;;;;;21.63;14.85;;;8.70;99.90;;;;;;4970880;28;20454;-80
2022/10/26 03:17:08;;;;;;;26.30;15.18;;;8.60;99.90;;;;;;4987460;28;20093;-80
2022/10/26 03:19:33;;;;;;;33.72;16.90;;;8.70;99.90;;;;;;4987689;28;20051;-80
2022/10/26 03:21:59;;;;;;;26.17;15.90;;;8.70;99.90;;;;;;4987516;28;20074;-80
2022/10/26 03:24:24;;;;;;;24.33;15.90;;;8.70;99.90;;;;;;4987365;28;20489;-80
2022/10/26 03:26:50;;;;;;;26.58;15.93;;;8.70;99.90;;;;;;4986745;28;20050;-80
2022/10/26 03:29:15;;;;;;;24.38;15.05;;;8.70;99.90;;;;;;4971611;28;20058;-80
2022/10/26 03:31:41;;;;;;;23.63;16.40;;;8.70;99.90;;;;;;4987459;28;20115;-80
2022/10/26 03:34:06;;;;;;;30.38;16.63;;;8.70;99.90;;;;;;4987553;28;20118;-80
2022/10/26 03:36:32;;;;;;;26.73;16.50;;;8.70;99.90;;;;;;4990943;28;20050;-80
2022/10/26 03:38:58;;;;;;;24.73;15.40;;;8.80;99.90;;;;;;4991679;28;20412;-80
2022/10/26 03:41:24;;;;;;;26.58;16.48;;;8.80;99.90;;;;;;4990520;28;20046;-80
2022/10/26 03:43:49;;;;;;;32.63;17.15;;;8.80;99.90;;;;;;4992508;28;20048;-80
2022/10/26 03:46:15;;;;;;;24.23;16.73;;;8.80;99.90;;;;;;4992274;28;20146;-80
2022/10/26 03:48:40;;;;;;;26.63;16.65;;;8.80;99.90;;;;;;4992332;28;20489;-80
2022/10/26 03:51:06;;;;;;;29.85;16.08;;;8.80;99.90;;;;;;4990751;28;20038;-80
2022/10/26 03:53:31;;;;;;;27.08;15.05;;;8.80;99.90;;;;;;4991075;28;20050;-80
2022/10/26 03:55:57;;;;;;;24.30;15.77;;;8.70;99.90;;;;;;4991942;28;20416;-80
2022/10/26 03:58:22;;;;;;;23.35;15.48;;;8.70;99.90;;;;;;4991831;28;20134;-80
2022/10/26 04:00:48;;;;;;;31.02;16.08;;;8.80;99.90;;;;;;4991228;28;20184;-80
2022/10/26 04:03:14;;;;;;;24.60;16.00;;;8.80;99.90;;;;;;4990516;28;20203;-80
2022/10/26 04:05:39;;;;;;;19.90;14.20;;;8.80;99.90;;;;;;4991154;28;20050;-80
2022/10/26 04:08:05;;;;;;;21.55;15.68;;;8.80;99.90;;;;;;4990791;28;20075;-80
2022/10/26 04:10:31;;;;;;;23.92;15.68;;;8.70;99.90;;;;;;4990579;28;20038;-80
2022/10/26 04:13:00;;;;;;;23.77;15.85;;;8.70;99.90;;;;;;4989933;28;20457;-80
2022/10/26 04:15:26;;;;;;;24.27;15.57;;;8.70;99.90;;;;;;4992084;28;20180;-80
2022/10/26 04:17:56;;;;;;;23.40;15.15;;;8.70;99.90;;;;;;4991626;28;20741;-80
2022/10/26 04:20:22;;;;;;;24.13;15.23;;;8.90;99.90;;;;;;4991102;28;20069;-80
2022/10/26 04:22:55;;;;;;;26.05;15.93;;;8.70;99.90;;;;;;4974481;28;20039;-80
2022/10/26 04:25:20;;;;;;;20.35;15.10;;;8.70;99.90;;;;;;4990830;28;20131;-80
2022/10/26 04:27:46;;;;;;;23.92;15.85;;;8.70;99.90;;;;;;4989392;28;20504;-80
2022/10/26 04:30:14;;;;;;;19.65;13.40;;;8.70;99.90;;;;;;4990425;28;20054;-80
2022/10/26 04:32:43;;;;;;;23.15;14.25;;;8.70;99.90;;;;;;4990591;28;20088;-80
2022/10/26 04:35:08;;;;;;;25.95;15.88;;;8.70;99.90;;;;;;4989804;28;20046;-80
2022/10/26 04:37:34;;;;;;;23.55;14.40;;;8.80;99.90;;;;;;4991326;28;20097;-80
2022/10/26 04:39:59;;;;;;;23.17;14.65;;;8.80;99.90;;;;;;4991660;28;20042;-80
2022/10/26 04:42:25;;;;;;;23.35;14.68;;;8.90;99.90;;;;;;4991200;28;20523;-80
2022/10/26 04:44:50;;;;;;;24.50;14.27;;;9.00;99.90;;;;;;4991316;28;20141;-80
2022/10/26 04:47:16;;;;;;;26.77;13.90;;;9.00;99.90;;;;;;4989903;28;20057;-80
2022/10/26 04:49:42;;;;;;;24.52;14.75;;;9.10;99.90;;;;;;4991633;28;20050;-80
2022/10/26 04:52:07;;;;;;;23.05;15.50;;;9.20;99.90;;;;;;4991222;28;20054;-80
2022/10/26 04:54:33;;;;;;;26.05;14.90;;;9.10;99.90;;;;;;4991108;28;20047;-79
2022/10/26 04:56:58;;;;;;;23.17;15.50;;;9.20;99.90;;;;;;4990945;28;20088;-80
2022/10/26 04:59:24;;;;;;;23.65;15.10;;;9.20;99.90;;;;;;4991158;28;20054;-80
2022/10/26 05:01:50;;;;;;;23.88;15.13;;;9.30;99.90;;;;;;4991015;28;20061;-80
2022/10/26 05:04:15;;;;;;;22.42;14.77;;;9.30;99.90;;;;;;4991514;28;20057;-80
2022/10/26 05:06:41;;;;;;;27.23;14.98;;;9.30;99.90;;;;;;4989746;28;20133;-80
2022/10/26 05:09:06;;;;;;;22.17;14.55;;;9.30;99.90;;;;;;4990895;28;20048;-79
2022/10/26 05:11:32;;;;;;;20.30;14.05;;;9.40;99.90;;;;;;4990571;28;20050;-80
2022/10/26 05:13:57;;;;;;;21.77;14.20;;;9.40;99.90;;;;;;4990836;28;20046;-80
2022/10/26 05:16:23;;;;;;;22.75;14.88;;;9.50;99.90;;;;;;4991314;28;20459;-80
2022/10/26 05:18:49;;;;;;;21.55;13.68;;;9.50;99.90;;;;;;4989178;28;20567;-80
2022/10/26 05:21:18;;;;;;;20.50;13.68;;;9.50;99.90;;;;;;4989529;28;20046;-80
2022/10/26 05:23:54;;;;;;;22.30;14.55;;;9.60;99.90;;;;;;4989711;28;20500;-81
2022/10/26 05:26:20;;;;;;;20.52;13.02;;;9.90;99.90;;;;;;4988858;28;20446;-80
2022/10/26 05:28:46;;;;;;;21.48;13.70;;;9.60;99.90;;;;;;4990881;28;20049;-80
2022/10/26 05:31:12;;;;;;;23.90;14.65;;;9.60;99.90;;;;;;4990668;28;20038;-80
2022/10/26 05:33:38;;;;;;;21.65;13.77;;;9.60;99.90;;;;;;4988554;28;20057;-80
2022/10/26 05:36:04;;;;;;;20.58;13.07;;;9.60;99.90;;;;;;4989641;28;20368;-80
2022/10/26 05:38:29;;;;;;;19.42;13.90;;;9.70;99.90;;;;;;4989272;28;20521;-80
2022/10/26 05:40:55;;;;;;;24.10;13.75;;;9.70;99.90;;;;;;4989138;28;20215;-80
2022/10/26 05:43:22;;;;;;;20.60;13.32;;;9.70;99.90;;;;;;4990167;28;20050;-80
2022/10/26 05:45:52;;;;;;;20.85;13.10;;;9.70;99.90;;;;;;4988933;28;20057;-80
2022/10/26 05:48:18;;;;;;;23.52;13.40;;;9.70;99.90;;;;;;4989801;28;20042;-82
2022/10/26 05:50:44;;;;;;;35.85;15.15;;;9.70;99.90;;;;;;4988787;28;20117;-81
2022/10/26 05:53:09;;;;;;;17.85;13.40;;;10.20;99.90;;;;;;4989052;28;20149;-79
2022/10/26 05:55:36;;;;;;;18.40;12.15;;;10.00;99.90;;;;;;4988248;28;20077;-80
2022/10/26 05:58:02;;;;;;;22.92;13.68;;;9.80;99.90;;;;;;4988417;28;20066;-80
2022/10/26 06:00:28;;;;;;;18.95;13.10;;;9.80;99.90;;;;;;4988968;28;20080;-80
2022/10/26 06:03:18;;;;;;;19.15;12.80;;;9.80;99.90;;;;;;4988339;28;20057;-80
2022/10/26 06:05:52;;;;;;;21.15;12.82;;;9.80;99.90;;;;;;4988289;28;20157;-80
2022/10/26 06:08:18;;;;;;;25.60;12.95;;;9.90;99.90;;;;;;4972774;28;20807;-80
2022/10/26 06:10:44;;;;;;;16.55;12.40;;;9.90;99.90;;;;;;4972211;28;20054;-80
2022/10/26 06:13:10;;;;;;;25.27;12.13;;;9.90;99.90;;;;;;4988559;28;20053;-80
2022/10/26 06:15:49;;;;;;;20.58;11.80;;;9.90;99.90;;;;;;4988255;28;20149;-80
2022/10/26 06:18:26;;;;;;;18.58;11.73;;;9.90;99.90;;;;;;4988352;28;20054;-80
2022/10/26 06:21:21;;;;;;;22.30;11.90;;;9.90;99.90;;;;;;4987977;28;20056;-79
2022/10/26 06:23:56;;;;;;;15.60;11.43;;;9.90;99.90;;;;;;4988295;28;20051;-80
2022/10/26 06:26:43;;;;;;;17.70;10.23;;;10.00;99.90;;;;;;4987648;28;20050;-81
2022/10/26 06:29:24;;;;;;;16.75;11.18;;;10.00;99.90;;;;;;4988329;28;20043;-79
2022/10/26 06:31:49;;;;;;;19.77;11.27;;;10.00;99.90;;;;;;4988182;28;20054;-80
2022/10/26 06:34:24;;;;;;;16.80;11.32;;;10.00;99.90;;;;;;4988387;28;20050;-81
2022/10/26 06:36:50;;;;;;;23.10;10.85;;;10.10;99.90;;;;;;4987899;28;20054;-80
2022/10/26 06:39:16;;;;;;;18.63;10.50;;;10.10;99.90;;;;;;4988853;28;20464;-80
2022/10/26 06:41:42;;;;;;;14.63;11.45;;;10.10;99.90;;;;;;4987436;28;20050;-80
2022/10/26 06:44:13;;;;;;;13.70;9.43;;;10.10;99.90;;;;;;4988518;28;20484;-80
2022/10/26 06:46:51;;;;;;;14.40;11.13;;;10.10;99.90;;;;;;4987753;28;20081;-80
2022/10/26 06:49:35;;;;;;;14.50;10.15;;;10.00;99.90;;;;;;4987857;28;20061;-80
2022/10/26 06:52:09;;;;;;;16.65;11.27;;;10.00;99.90;;;;;;4987440;28;20082;-80
2022/10/26 06:54:53;;;;;;;18.55;10.45;;;10.00;99.90;;;;;;4971249;28;20134;-80
2022/10/26 06:57:26;;;;;;;18.50;11.15;;;10.00;99.90;;;;;;4971076;28;20138;-80
2022/10/26 07:00:03;;;;;;;17.55;9.48;;;9.90;99.90;;;;;;4987719;28;20108;-79
2022/10/26 07:02:29;;;;;;;17.75;10.88;;;10.00;99.90;;;;;;4987699;28;20093;-80
2022/10/26 07:04:54;;;;;;;14.25;9.52;;;9.90;99.90;;;;;;4987466;28;20455;-80
2022/10/26 07:07:23;;;;;;;14.38;9.25;;;9.90;99.90;;;;;;4987271;28;20172;-80
2022/10/26 07:09:49;;;;;;;14.43;10.15;;;9.90;99.90;;;;;;4987399;28;20074;-80
2022/10/26 07:12:15;;;;;;;14.80;9.25;;;10.00;99.90;;;;;;4986956;28;20042;-81
2022/10/26 07:14:41;;;;;;;14.57;10.48;;;10.00;99.90;;;;;;4987439;28;20047;-81
2022/10/26 07:17:08;;;;;;;13.70;9.32;;;10.10;99.90;;;;;;4987741;28;20473;-80
2022/10/26 07:19:34;;;;;;;13.82;9.38;;;10.10;99.90;;;;;;4987597;28;20089;-80
2022/10/26 07:22:00;;;;;;;16.25;9.90;;;10.20;99.90;;;;;;4986873;28;20046;-81
2022/10/26 07:24:26;;;;;;;14.80;9.27;;;10.30;99.90;;;;;;4987820;28;20050;-80
2022/10/26 07:26:54;;;;;;;12.95;8.75;;;10.50;99.90;;;;;;4970653;28;20642;-80
2022/10/26 07:29:20;;;;;;;17.10;8.10;;;10.60;99.90;;;;;;4971276;28;20077;-81
2022/10/26 07:31:45;;;;;;;15.20;9.13;;;10.70;99.90;;;;;;4968795;28;20057;-81
2022/10/26 07:34:11;;;;;;;11.27;8.07;;;10.80;99.90;;;;;;4967738;28;20047;-81
2022/10/26 07:36:37;;;;;;;12.68;8.52;;;10.90;99.90;;;;;;4967763;28;20051;-81
2022/10/26 07:39:03;;;;;;;10.50;7.75;;;11.00;99.90;;;;;;4967930;28;20110;-81
2022/10/26 07:41:29;;;;;;;9.73;8.23;;;11.10;99.90;;;;;;4950518;28;20113;-81
2022/10/26 07:43:54;;;;;;;10.05;7.75;;;11.20;99.90;;;;;;4951678;28;20039;-81
2022/10/26 07:46:20;;;;;;;14.85;7.13;;;11.30;99.90;;;;;;4967511;28;20117;-80
2022/10/26 07:48:45;;;;;;;9.70;7.68;;;11.40;99.90;;;;;;4967543;28;20039;-80
2022/10/26 07:51:11;;;;;;;10.80;7.20;;;11.40;99.90;;;;;;4967804;28;20054;-81
2022/10/26 07:53:37;;;;;;;14.45;7.40;;;11.60;99.90;;;;;;4967564;28;20054;-81
2022/10/26 07:56:03;;;;;;;12.65;8.20;;;11.70;99.90;;;;;;4967614;28;20527;-81
2022/10/26 07:58:29;;;;;;;10.07;6.90;;;11.70;99.90;;;;;;4967377;28;20050;-80
2022/10/26 08:00:55;;;;;;;13.68;7.35;;;11.80;99.90;;;;;;4967547;28;20061;-81
2022/10/26 08:03:21;;;;;;;16.55;7.20;;;11.90;99.90;;;;;;4967791;28;20087;-81
2022/10/26 08:05:50;;;;;;;15.27;8.05;;;12.00;99.90;;;;;;4967610;28;20055;-81
2022/10/26 08:08:18;;;;;;;8.38;6.80;;;12.00;99.90;;;;;;4967760;28;20083;-81
2022/10/26 08:10:45;;;;;;;13.85;6.55;;;12.10;99.90;;;;;;4967545;28;20050;-80
2022/10/26 08:13:11;;;;;;;7.40;6.25;;;12.10;99.90;;;;;;4966939;28;20043;-80
2022/10/26 08:15:37;;;;;;;10.35;6.30;;;12.20;99.90;;;;;;4967114;28;20042;-81
2022/10/26 08:18:03;;;;;;;13.40;7.25;;;12.30;99.90;;;;;;4967175;28;20073;-81
2022/10/26 08:20:29;;;;;;;11.80;7.43;;;12.40;99.90;;;;;;4967667;28;20108;-80
2022/10/26 08:22:59;;;;;;;11.00;6.80;;;12.40;99.90;;;;;;4970684;28;20133;-80
2022/10/26 08:25:26;;;;;;;10.02;6.43;;;12.50;99.90;;;;;;4972641;28;20043;-80
2022/10/26 08:27:53;;;;;;;8.77;6.00;;;12.60;99.90;;;;;;4970123;28;20194;-80
2022/10/26 08:30:18;;;;;;;10.05;6.72;;;12.60;99.90;;;;;;4971039;28;20088;-81
2022/10/26 08:32:44;;;;;;;8.90;5.95;;;12.60;99.90;;;;;;4954634;28;20446;-81
2022/10/26 08:35:11;;;;;;;9.95;6.70;;;12.60;99.90;;;;;;4972158;28;20050;-80
2022/10/26 08:37:36;;;;;;;8.77;6.40;;;12.60;99.90;;;;;;4954661;28;20065;-80
2022/10/26 08:40:03;;;;;;;7.57;5.80;;;12.70;99.90;;;;;;4970981;28;20050;-80
2022/10/26 08:42:35;;;;;;;6.78;6.00;;;12.70;99.90;;;;;;4971354;28;20054;-80
2022/10/26 08:45:10;;;;;;;8.18;5.65;;;12.70;99.90;;;;;;4954590;28;20055;-80
2022/10/26 08:47:43;;;;;;;7.63;5.95;;;12.70;99.90;;;;;;4970633;28;20357;-80
2022/10/26 08:50:18;;;;;;;17.17;6.00;;;12.80;99.90;;;;;;4954835;28;20060;-80
2022/10/26 08:53:02;;;;;;;7.15;6.05;;;13.00;99.90;;;;;;4970344;28;20051;-80
2022/10/26 08:55:47;;;;;;;9.52;5.60;;;13.10;99.90;;;;;;4970029;28;20460;-81
2022/10/26 08:58:20;;;;;;;7.97;5.88;;;13.30;99.90;;;;;;4970127;28;20058;-81
2022/10/26 09:00:48;;;;;;;12.73;5.35;;;13.50;99.90;;;;;;4970573;28;20042;-81
2022/10/26 09:03:16;;;;;;;12.70;5.20;;;13.60;99.90;;;;;;4969844;28;20078;-81
2022/10/26 09:05:50;;;;;;;8.73;5.35;;;13.90;99.90;;;;;;4970598;28;20164;-81
2022/10/26 09:08:41;;;;;;;6.45;5.05;;;14.00;99.90;;;;;;4970535;28;20054;-81
2022/10/26 09:11:38;;;;;;;7.40;4.78;;;14.00;99.90;;;;;;4971175;28;20050;-80
2022/10/26 09:14:26;;;;;;;12.73;4.85;;;14.20;99.90;;;;;;4970587;28;20100;-81
2022/10/26 09:17:06;;;;;;;10.60;4.50;;;14.40;99.90;;;;;;4969995;28;20058;-81
2022/10/26 09:20:10;;;;;;;7.95;4.95;;;14.50;99.90;;;;;;4954231;28;20406;-81
2022/10/26 09:22:41;;;;;;;8.27;4.85;;;14.60;99.90;;;;;;4953539;28;20047;-81
2022/10/26 09:25:25;;;;;;;6.20;4.47;;;14.80;99.90;;;;;;4970456;28;20138;-80
2022/10/26 09:27:55;;;;;;;11.07;4.40;;;14.90;99.90;;;;;;4969667;28;20078;-81
2022/10/26 09:30:21;;;;;;;5.30;4.32;;;15.00;99.90;;;;;;4969807;28;20121;-81
2022/10/26 09:32:55;;;;;;;6.90;4.20;;;15.10;99.90;;;;;;4969287;28;20489;-81
2022/10/26 09:35:59;;;;;;;7.63;4.10;;;15.00;99.90;;;;;;4953430;28;20453;-81
2022/10/26 09:38:35;;;;;;;5.47;3.88;;;15.10;99.90;;;;;;4955421;28;20046;-80
2022/10/26 09:41:18;;;;;;;6.25;3.80;;;15.20;99.90;;;;;;4987963;28;20423;-81
2022/10/26 09:43:54;;;;;;;6.03;3.55;;;15.40;99.90;;;;;;4975844;28;20058;-81
2022/10/26 09:46:27;;;;;;;7.90;3.72;;;15.60;99.90;;;;;;4969387;28;20047;-80
2022/10/26 09:49:04;;;;;;;9.00;3.55;;;16.20;99.90;;;;;;4971175;28;20058;-81
2022/10/26 09:51:30;;;;;;;7.03;3.55;;;15.90;99.90;;;;;;4970852;28;20062;-81
2022/10/26 09:53:59;;;;;;;4.82;3.53;;;15.90;99.90;;;;;;4969462;28;20065;-81
2022/10/26 09:56:27;;;;;;;8.50;3.42;;;16.00;99.90;;;;;;4968507;28;20058;-81
2022/10/26 09:59:00;;;;;;;14.45;3.58;;;16.10;99.90;;;;;;4952896;28;20090;-81
2022/10/26 10:01:26;;;;;;;5.85;3.17;;;16.10;99.90;;;;;;4969420;28;20409;-80
2022/10/26 10:04:19;;;;;;;5.30;3.30;;;16.10;99.90;;;;;;4969572;28;20054;-80
2022/10/26 10:06:51;;;;;;;;;;;16.20;99.90;;;;;;4969705;28;20131;-80
2022/10/26 10:09:22;;;;;;;7.05;3.40;;;16.20;99.90;;;;;;4970720;28;20016;-80
2022/10/26 10:11:54;;;;;;;6.00;3.20;;;16.40;99.90;;;;;;4968425;28;20047;-80
2022/10/26 10:14:22;;;;;;;6.65;3.03;;;16.40;99.90;;;;;;4968402;28;20085;-80
2022/10/26 10:17:00;;;;;;;5.93;3.25;;;16.40;99.90;;;;;;4970133;28;20122;-80
2022/10/26 10:19:31;;;;;;;5.65;3.10;;;16.50;99.90;;;;;;4969002;28;20098;-80
2022/10/26 10:22:08;;;;;;;11.63;3.72;;;16.60;99.90;;;;;;4968995;28;20039;-81
2022/10/26 10:24:40;;;;;;;6.88;3.40;;;16.60;99.90;;;;;;4969163;28;20057;-80
2022/10/26 10:27:12;;;;;;;8.07;3.53;;;16.60;99.90;;;;;;4967648;28;20421;-80
2022/10/26 10:29:45;;;;;;;4.43;3.08;;;16.80;99.90;;;;;;4970233;28;20126;-80
2022/10/26 10:32:15;;;;;;;4.00;2.90;;;16.80;99.90;;;;;;4969807;28;20043;-81
2022/10/26 10:34:40;;;;;;;3.85;2.88;;;16.90;99.90;;;;;;4968936;28;20042;-80
2022/10/26 10:37:27;;;;;;;9.40;3.28;;;16.90;99.90;;;;;;4968360;28;20092;-80
2022/10/26 10:40:03;;;;;;;5.75;3.15;;;17.00;99.90;;;;;;4969992;28;20108;-80
2022/10/26 10:42:32;;;;;;;5.95;3.00;;;17.10;99.90;;;;;;4968181;28;20050;-80
2022/10/26 10:44:58;;;;;;;4.40;3.00;;;17.20;99.90;;;;;;4968042;28;20113;-80
2022/10/26 10:47:30;;;;;;;6.95;2.88;;;17.30;99.90;;;;;;4951900;28;20082;-80
2022/10/26 10:50:00;;;;;;;6.53;3.28;;;17.50;99.90;;;;;;4968647;28;20054;-80
2022/10/26 10:52:32;;;;;;;4.57;2.88;;;17.60;99.90;;;;;;4952243;28;20497;-80
2022/10/26 10:55:17;;;;;;;7.40;3.47;;;17.70;99.90;;;;;;4952393;28;20057;-81
2022/10/26 10:57:57;;;;;;;5.05;3.00;;;17.70;99.90;;;;;;4968137;28;20058;-80
2022/10/26 11:00:24;;;;;;;6.35;3.30;;;17.80;99.90;;;;;;4967979;28;20370;-80
2022/10/26 11:03:29;;;;;;;5.07;2.83;;;17.90;99.90;;;;;;4968532;28;20038;-80
2022/10/26 11:06:15;;;;;;;5.13;2.80;;;17.90;99.90;;;;;;4968281;28;20117;-80
2022/10/26 11:08:54;;;;;;;5.32;2.80;;;18.00;99.90;;;;;;4968653;28;20116;-80
2022/10/26 11:11:35;;;;;;;6.88;2.45;;;18.00;99.90;;;;;;4967852;28;20058;-80
2022/10/26 11:14:19;;;;;;;6.30;2.67;;;18.10;99.90;;;;;;4967851;28;20057;-81
2022/10/26 11:16:50;;;;;;;6.43;2.72;;;18.10;99.90;;;;;;4968327;28;20051;-80
2022/10/26 11:19:36;;;;;;;9.50;3.00;;;18.10;99.90;;;;;;4968324;28;20054;-80
2022/10/26 11:22:05;;;;;;;3.92;2.80;;;18.20;99.90;;;;;;4967535;28;20046;-80
2022/10/26 11:24:48;;;;;;;8.10;3.10;;;18.20;99.90;;;;;;4968668;28;20497;-80
2022/10/26 11:27:29;;;;;;;3.95;2.42;;;18.10;99.90;;;;;;4951729;28;20477;-80
2022/10/26 11:30:17;;;;;;;5.50;2.58;;;18.10;99.90;;;;;;4967683;28;20117;-81
2022/10/26 11:32:52;;;;;;;7.05;2.53;;;18.10;99.90;;;;;;4951932;28;20058;-81
2022/10/26 11:35:53;;;;;;;4.47;2.67;;;18.10;99.90;;;;;;4968313;28;20105;-80
2022/10/26 11:38:37;;;;;;;4.65;3.00;;;18.20;99.90;;;;;;4967077;28;20055;-81
2022/10/26 11:41:26;;;;;;;4.82;2.70;;;18.20;99.90;;;;;;4952314;28;20043;-81
2022/10/26 11:43:58;;;;;;;6.88;3.10;;;18.20;99.90;;;;;;4968088;28;20050;-81
2022/10/26 11:46:33;;;;;;;6.93;2.90;;;18.30;99.90;;;;;;4952147;28;20050;-81
2022/10/26 11:49:23;;;;;;;4.13;2.60;;;18.30;99.90;;;;;;4951990;28;20085;-81
2022/10/26 11:52:39;;;;;;;6.70;2.50;;;18.30;99.90;;;;;;4967977;28;20481;-80
2022/10/26 11:55:12;;;;;;;8.93;3.00;;;18.30;99.90;;;;;;4969512;28;20065;-81
2022/10/26 11:57:47;;;;;;;5.40;2.72;;;18.40;99.90;;;;;;4989168;28;20109;-80
2022/10/26 12:00:16;;;;;;;5.65;2.67;;;18.40;99.90;;;;;;4979559;28;20059;-80
2022/10/26 12:02:49;;;;;;;5.60;2.90;;;18.60;99.90;;;;;;4971630;28;20058;-81
2022/10/26 12:05:15;;;;;;;6.43;2.83;;;18.60;99.90;;;;;;4971776;28;20125;-81
2022/10/26 12:07:47;;;;;;;9.13;2.70;;;18.50;99.90;;;;;;4971358;28;20636;-80
2022/10/26 12:10:47;;;;;;;3.75;2.40;;;18.60;99.90;;;;;;4971540;28;20047;-80
2022/10/26 12:13:28;;;;;;;9.77;3.17;;;18.60;99.90;;;;;;4970697;28;20201;-81
2022/10/26 12:16:41;;;;;;;7.70;2.95;;;18.60;99.90;;;;;;4970751;28;20055;-81
2022/10/26 12:19:12;;;;;;;;;;;18.70;99.90;;;;;;4955660;28;20043;-80
2022/10/26 12:21:37;;;;;;;7.28;2.90;;;18.70;99.90;;;;;;4971311;28;19945;-80
2022/10/26 12:24:45;;;;;;;4.68;2.70;;;18.70;99.90;;;;;;4972126;28;20521;-81
2022/10/26 12:27:37;;;;;;;4.20;2.45;;;18.70;99.90;;;;;;4972661;28;20501;-81
2022/10/26 12:30:18;;;;;;;3.40;2.63;;;18.80;99.90;;;;;;4971317;28;20062;-81
2022/10/26 12:32:43;;;;;;;8.75;3.33;;;18.80;99.90;;;;;;4970726;28;20055;-80
2022/10/26 12:35:35;;;;;;;9.43;2.78;;;18.80;99.90;;;;;;4972137;28;20143;-81
2022/10/26 12:38:20;;;;;;;9.45;3.00;;;18.80;99.90;;;;;;4971142;28;20104;-81
2022/10/26 12:40:47;;;;;;;8.75;3.13;;;18.90;99.90;;;;;;4970223;28;20413;-81
2022/10/26 12:43:12;;;;;;;8.60;3.28;;;18.90;99.90;;;;;;4969852;28;20042;-80
2022/10/26 12:45:42;;;;;;;7.18;3.05;;;18.90;99.90;;;;;;4970892;28;20046;-80
2022/10/26 12:48:41;;;;;;;5.82;2.53;;;18.90;99.90;;;;;;4970389;28;20043;-80
2022/10/26 12:51:20;;;;;;;6.53;2.80;;;19.00;99.90;;;;;;4969933;28;20058;-81
2022/10/26 12:54:30;;;;;;;4.65;2.83;;;19.40;99.90;;;;;;4954216;28;20571;-81
2022/10/26 12:57:12;;;;;;;5.55;2.90;;;19.10;99.90;;;;;;4969850;28;20085;-80
2022/10/26 12:59:58;;;;;;;8.32;3.10;;;19.10;99.90;;;;;;4954370;28;20050;-80
2022/10/26 13:02:46;;;;;;;5.78;2.90;;;19.10;99.90;;;;;;4970147;28;20039;-80
2022/10/26 13:05:41;;;;;;;5.43;2.72;;;19.20;99.90;;;;;;4970462;28;20050;-81
2022/10/26 13:08:09;;;;;;;7.28;3.22;;;19.20;99.90;;;;;;4953499;28;20043;-80